createdAt,value
2017-09-05T00:01:34.852Z,100515.25
2017-09-05T00:04:03.905Z,100514.61
2017-09-05T00:06:32.955Z,100512.30
2017-09-05T00:12:11.515Z,100508.69
2017-09-05T00:14:52.442Z,100511.74
2017-09-05T00:17:31.416Z,100514.98
2017-09-05T00:20:00.476Z,100513.42
2017-09-05T00:22:29.840Z,100522.36
2017-09-05T00:24:58.912Z,100521.30
2017-09-05T00:27:27.944Z,100515.64
2017-09-05T00:29:57.328Z,100521.05
2017-09-05T00:32:26.397Z,100522.63
2017-09-05T00:34:55.467Z,100523.64
2017-09-05T00:37:24.512Z,100522.17
2017-09-05T00:39:53.567Z,100527.84
2017-09-05T00:42:22.636Z,100524.73
2017-09-05T00:44:51.740Z,100524.37
2017-09-05T00:47:20.767Z,100521.64
2017-09-05T00:49:49.828Z,100518.08
2017-09-05T00:52:18.913Z,100519.88
2017-09-05T00:54:47.997Z,100522.84
2017-09-05T00:57:17.035Z,100522.59
2017-09-05T00:59:46.085Z,100519.45
2017-09-05T01:02:15.212Z,100518.87
2017-09-05T01:04:45.071Z,100522.92
2017-09-05T01:07:14.148Z,100528.23
2017-09-05T01:09:43.207Z,100522.39
2017-09-05T01:12:13.061Z,100525.26
2017-09-05T01:14:42.117Z,100521.31
2017-09-05T01:17:11.576Z,100527.52
2017-09-05T01:19:40.629Z,100525.40
2017-09-05T01:22:09.708Z,100530.77
2017-09-05T01:24:38.798Z,100525.61
2017-09-05T01:27:08.120Z,100518.80
2017-09-05T01:29:37.972Z,100520.96
2017-09-05T01:32:07.016Z,100517.81
2017-09-05T01:34:36.044Z,100522.45
2017-09-05T01:37:05.121Z,100526.78
2017-09-05T01:39:34.167Z,100521.09
2017-09-05T01:42:03.254Z,100519.05
2017-09-05T01:44:32.323Z,100515.83
2017-09-05T01:47:01.386Z,100511.70
2017-09-05T01:49:30.495Z,100523.26
2017-09-05T01:51:59.562Z,100516.75
2017-09-05T01:54:29.400Z,100521.80
2017-09-05T01:56:59.230Z,100516.12
2017-09-05T01:59:28.300Z,100515.14
2017-09-05T02:01:57.392Z,100525.19
2017-09-05T02:04:26.431Z,100525.03
2017-09-05T02:06:55.495Z,100520.98
2017-09-05T02:09:24.561Z,100520.98
2017-09-05T02:11:53.628Z,100512.53
2017-09-05T02:14:22.691Z,100511.34
2017-09-05T02:16:51.768Z,100515.09
2017-09-05T02:19:20.879Z,100510.99
2017-09-05T02:21:50.684Z,100516.68
2017-09-05T02:24:19.750Z,100510.41
2017-09-05T02:26:48.796Z,100508.53
2017-09-05T02:29:17.857Z,100503.64
2017-09-05T02:31:46.917Z,100495.00
2017-09-05T02:34:15.970Z,100496.16
2017-09-05T02:36:45.033Z,100487.59
2017-09-05T02:39:14.092Z,100485.61
2017-09-05T02:41:43.441Z,100483.76
2017-09-05T02:44:13.276Z,100484.50
2017-09-05T02:46:42.324Z,100478.00
2017-09-05T02:49:11.399Z,100478.42
2017-09-05T02:51:40.476Z,100470.94
2017-09-05T02:54:09.551Z,100468.90
2017-09-05T02:56:38.614Z,100467.31
2017-09-05T02:59:08.020Z,100464.67
2017-09-05T03:01:37.048Z,100457.13
2017-09-05T03:04:06.213Z,100460.80
2017-09-05T03:06:35.395Z,100461.63
2017-09-05T03:09:04.686Z,100458.64
2017-09-05T03:11:33.694Z,100460.20
2017-09-05T03:14:02.973Z,100472.38
2017-09-05T03:16:32.031Z,100464.66
2017-09-05T03:19:01.108Z,100473.48
2017-09-05T03:21:30.152Z,100472.30
2017-09-05T03:23:59.205Z,100478.01
2017-09-05T03:26:28.282Z,100480.17
2017-09-05T03:28:58.913Z,100477.24
2017-09-05T03:31:28.013Z,100471.66
2017-09-05T03:33:57.845Z,100471.56
2017-09-05T03:36:26.964Z,100466.67
2017-09-05T03:38:56.035Z,100468.50
2017-09-05T03:41:25.444Z,100475.03
2017-09-05T03:43:55.241Z,100470.41
2017-09-05T03:46:25.131Z,100469.16
2017-09-05T03:48:54.187Z,100468.73
2017-09-05T03:51:23.251Z,100463.61
2017-09-05T03:53:52.356Z,100456.92
2017-09-05T03:56:21.658Z,100455.76
2017-09-05T03:58:50.739Z,100451.42
2017-09-05T04:01:19.783Z,100452.32
2017-09-05T04:03:48.849Z,100466.30
2017-09-05T04:06:17.932Z,100473.28
2017-09-05T04:08:46.999Z,100472.97
2017-09-05T04:11:16.083Z,100475.16
2017-09-05T04:13:45.124Z,100472.10
2017-09-05T04:16:14.198Z,100479.38
2017-09-05T04:18:44.041Z,100474.27
2017-09-05T04:21:13.118Z,100475.25
2017-09-05T04:23:42.167Z,100481.94
2017-09-05T04:26:11.231Z,100478.31
2017-09-05T04:28:40.304Z,100482.98
2017-09-05T04:31:09.381Z,100478.31
2017-09-05T04:33:38.457Z,100475.40
2017-09-05T04:36:07.967Z,100474.95
2017-09-05T04:38:37.054Z,100477.89
2017-09-05T04:41:06.150Z,100478.09
2017-09-05T04:43:35.204Z,100480.87
2017-09-05T04:46:04.267Z,100482.03
2017-09-05T04:48:34.092Z,100484.95
2017-09-05T04:51:03.335Z,100484.67
2017-09-05T04:53:32.415Z,100486.23
2017-09-05T04:56:01.481Z,100477.36
2017-09-05T04:58:30.529Z,100481.60
2017-09-05T05:00:59.588Z,100479.78
2017-09-05T05:03:28.679Z,100484.85
2017-09-05T05:05:57.744Z,100488.16
2017-09-05T05:08:26.809Z,100486.62
2017-09-05T05:10:55.854Z,100489.31
2017-09-05T05:13:24.946Z,100486.96
2017-09-05T05:15:54.325Z,100491.48
2017-09-05T05:18:23.395Z,100487.55
2017-09-05T05:20:52.466Z,100483.42
2017-09-05T05:23:21.521Z,100479.51
2017-09-05T05:25:50.591Z,100480.16
2017-09-05T05:28:19.647Z,100481.14
2017-09-05T05:30:48.731Z,100487.85
2017-09-05T05:33:17.806Z,100484.58
2017-09-05T05:35:46.879Z,100475.66
2017-09-05T05:38:15.961Z,100474.52
2017-09-05T05:40:45.048Z,100476.19
2017-09-05T05:43:14.115Z,100484.47
2017-09-05T05:45:43.168Z,100481.34
2017-09-05T05:48:12.377Z,100475.19
2017-09-05T05:50:41.440Z,100474.91
2017-09-05T05:53:10.480Z,100479.27
2017-09-05T05:55:39.551Z,100474.98
2017-09-05T05:58:08.647Z,100475.05
2017-09-05T06:00:37.704Z,100478.91
2017-09-05T06:03:07.024Z,100475.69
2017-09-05T06:05:36.056Z,100480.63
2017-09-05T06:08:06.027Z,100480.15
2017-09-05T06:10:35.116Z,100481.20
2017-09-05T06:13:04.215Z,100487.55
2017-09-05T06:15:33.244Z,100470.11
2017-09-05T06:18:02.415Z,100478.77
2017-09-05T06:20:31.479Z,100483.14
2017-09-05T06:23:00.749Z,100484.25
2017-09-05T06:25:29.813Z,100484.94
2017-09-05T06:27:58.857Z,100485.19
2017-09-05T06:30:27.910Z,100480.53
2017-09-05T06:32:56.990Z,100478.40
2017-09-05T06:35:26.033Z,100477.77
2017-09-05T06:37:55.132Z,100475.02
2017-09-05T06:40:24.936Z,100471.91
2017-09-05T06:42:54.004Z,100476.61
2017-09-05T06:45:23.085Z,100465.05
2017-09-05T06:47:52.401Z,100471.25
2017-09-05T06:50:21.475Z,100461.02
2017-09-05T06:52:50.542Z,100458.96
2017-09-05T06:55:19.688Z,100465.36
2017-09-05T06:57:48.737Z,100465.46
2017-09-05T07:00:17.823Z,100473.62
2017-09-05T07:02:46.893Z,100468.91
2017-09-05T07:05:16.719Z,100475.31
2017-09-05T07:07:45.767Z,100469.32
2017-09-05T07:10:14.859Z,100470.55
2017-09-05T07:12:43.912Z,100468.03
2017-09-05T07:15:12.999Z,100463.37
2017-09-05T07:17:42.046Z,100470.73
2017-09-05T07:20:11.324Z,100464.63
2017-09-05T07:22:40.340Z,100467.30
2017-09-05T07:25:10.214Z,100469.14
2017-09-05T07:27:39.280Z,100466.59
2017-09-05T07:30:08.509Z,100473.37
2017-09-05T07:32:37.576Z,100471.64
2017-09-05T07:35:07.413Z,100465.75
2017-09-05T07:37:36.585Z,100470.33
2017-09-05T07:40:05.674Z,100465.23
2017-09-05T07:42:35.507Z,100456.04
2017-09-05T07:45:04.880Z,100465.55
2017-09-05T07:47:34.045Z,100467.67
2017-09-05T07:50:03.335Z,100466.75
2017-09-05T07:52:32.409Z,100468.73
2017-09-05T07:55:01.452Z,100466.44
2017-09-05T07:57:30.535Z,100471.02
2017-09-05T07:59:59.570Z,100472.69
2017-09-05T08:02:29.407Z,100467.97
2017-09-05T08:04:58.473Z,100465.67
2017-09-05T08:07:28.285Z,100461.05
2017-09-05T08:09:57.357Z,100464.84
2017-09-05T08:12:26.404Z,100459.73
2017-09-05T08:14:55.463Z,100463.53
2017-09-05T08:17:24.795Z,100458.06
2017-09-05T08:19:53.875Z,100453.17
2017-09-05T08:22:22.948Z,100460.14
2017-09-05T08:24:51.985Z,100457.42
2017-09-05T08:27:21.351Z,100457.06
2017-09-05T08:29:50.379Z,100456.98
2017-09-05T08:32:19.475Z,100463.34
2017-09-05T08:34:48.509Z,100453.23
2017-09-05T08:37:17.578Z,100450.70
2017-09-05T08:39:46.931Z,100456.86
2017-09-05T08:42:15.998Z,100457.72
2017-09-05T08:44:45.044Z,100457.52
2017-09-05T08:47:14.439Z,100458.70
2017-09-05T08:49:44.255Z,100458.14
2017-09-05T08:52:14.080Z,100456.95
2017-09-05T08:54:43.120Z,100453.20
2017-09-05T08:57:12.349Z,100458.17
2017-09-05T08:59:41.964Z,100462.16
2017-09-05T09:02:11.047Z,100456.44
2017-09-05T09:04:40.092Z,100453.72
2017-09-05T09:07:09.167Z,100459.33
2017-09-05T09:09:38.202Z,100457.35
2017-09-05T09:12:07.273Z,100456.59
2017-09-05T09:14:36.345Z,100455.61
2017-09-05T09:17:06.176Z,100453.42
2017-09-05T09:19:35.345Z,100451.88
2017-09-05T09:22:04.423Z,100453.23
2017-09-05T09:24:33.463Z,100449.47
2017-09-05T09:27:02.637Z,100445.62
2017-09-05T09:29:31.691Z,100448.55
2017-09-05T09:32:00.744Z,100446.12
2017-09-05T09:34:29.833Z,100441.91
2017-09-05T09:36:58.884Z,100447.20
2017-09-05T09:39:27.992Z,100444.78
2017-09-05T09:41:57.012Z,100441.59
2017-09-05T09:44:26.077Z,100442.98
2017-09-05T09:46:55.171Z,100431.05
2017-09-05T09:49:24.436Z,100438.29
2017-09-05T09:51:53.538Z,100433.20
2017-09-05T09:54:22.675Z,100438.63
2017-09-05T09:56:51.683Z,100435.95
2017-09-05T09:59:20.772Z,100440.61
2017-09-05T10:01:49.820Z,100433.55
2017-09-05T10:04:18.923Z,100428.95
2017-09-05T10:06:48.114Z,100426.66
2017-09-05T10:09:17.179Z,100425.22
2017-09-05T10:11:46.264Z,100422.46
2017-09-05T10:14:15.379Z,100420.66
2017-09-05T10:16:44.441Z,100415.70
2017-09-05T10:19:13.495Z,100414.28
2017-09-05T10:21:42.540Z,100415.28
2017-09-05T10:24:11.716Z,100413.94
2017-09-05T10:26:40.749Z,100418.84
2017-09-05T10:29:09.844Z,100415.89
2017-09-05T10:31:38.876Z,100415.12
2017-09-05T10:34:07.928Z,100409.38
2017-09-05T10:36:37.296Z,100405.77
2017-09-05T10:39:06.370Z,100410.91
2017-09-05T10:41:35.415Z,100408.03
2017-09-05T10:44:04.480Z,100410.22
2017-09-05T10:46:33.622Z,100410.08
2017-09-05T10:49:02.657Z,100401.72
2017-09-05T10:51:31.824Z,100405.28
2017-09-05T10:54:00.885Z,100405.72
2017-09-05T10:56:29.944Z,100405.27
2017-09-05T10:58:59.021Z,100401.45
2017-09-05T11:01:28.073Z,100398.91
2017-09-05T11:03:57.152Z,100395.70
2017-09-05T11:06:26.209Z,100391.59
2017-09-05T11:08:55.279Z,100396.87
2017-09-05T11:11:24.436Z,100392.87
2017-09-05T11:13:53.592Z,100389.80
2017-09-05T11:16:22.690Z,100388.06
2017-09-05T11:18:51.821Z,100389.08
2017-09-05T11:21:20.853Z,100385.26
2017-09-05T11:23:49.957Z,100390.88
2017-09-05T11:26:19.018Z,100385.78
2017-09-05T11:28:48.830Z,100380.91
2017-09-05T11:31:17.892Z,100382.38
2017-09-05T11:33:46.961Z,100380.59
2017-09-05T11:36:16.039Z,100380.76
2017-09-05T11:38:45.156Z,100381.31
2017-09-05T11:41:14.237Z,100379.55
2017-09-05T11:43:43.281Z,100386.77
2017-09-05T11:46:12.370Z,100381.25
2017-09-05T11:48:41.405Z,100384.90
2017-09-05T11:51:10.477Z,100383.77
2017-09-05T11:53:39.588Z,100386.66
2017-09-05T11:56:08.663Z,100378.95
2017-09-05T11:58:37.748Z,100377.67
2017-09-05T12:01:06.825Z,100375.79
2017-09-05T12:03:35.905Z,100379.03
2017-09-05T12:06:05.064Z,100382.86
2017-09-05T12:08:34.112Z,100383.41
2017-09-05T12:13:31.344Z,100371.64
2017-09-05T12:16:00.454Z,100374.17
2017-09-05T12:18:29.709Z,100377.91
2017-09-05T12:20:58.885Z,100372.79
2017-09-05T12:23:27.978Z,100368.30
2017-09-05T12:25:57.020Z,100358.25
2017-09-05T12:28:26.092Z,100350.85
2017-09-05T12:30:55.155Z,100360.80
2017-09-05T12:33:24.207Z,100353.30
2017-09-05T12:35:53.296Z,100351.84
2017-09-05T12:38:22.351Z,100349.10
2017-09-05T12:40:51.421Z,100346.66
2017-09-05T12:43:20.504Z,100342.75
2017-09-05T12:45:50.024Z,100341.39
2017-09-05T12:48:19.088Z,100342.55
2017-09-05T12:50:48.173Z,100341.02
2017-09-05T12:53:17.393Z,100340.96
2017-09-05T12:55:46.471Z,100332.85
2017-09-05T12:58:15.511Z,100339.80
2017-09-05T13:00:44.623Z,100338.31
2017-09-05T13:03:13.685Z,100332.36
2017-09-05T13:05:43.378Z,100335.30
2017-09-05T13:08:12.587Z,100335.96
2017-09-05T13:10:41.658Z,100338.27
2017-09-05T13:13:11.184Z,100335.73
2017-09-05T13:15:40.246Z,100332.30
2017-09-05T13:18:10.148Z,100338.74
2017-09-05T13:20:39.226Z,100340.44
2017-09-05T13:23:08.336Z,100340.69
2017-09-05T13:25:37.380Z,100335.38
2017-09-05T13:28:06.831Z,100334.62
2017-09-05T13:30:36.248Z,100332.38
2017-09-05T13:33:05.316Z,100338.06
2017-09-05T13:35:34.380Z,100338.63
2017-09-05T13:38:03.520Z,100343.62
2017-09-05T13:40:32.809Z,100340.91
2017-09-05T13:43:01.880Z,100339.13
2017-09-05T13:45:30.980Z,100334.35
2017-09-05T13:48:00.047Z,100336.70
2017-09-05T13:50:29.125Z,100335.45
2017-09-05T13:52:58.221Z,100333.98
2017-09-05T13:55:27.271Z,100330.17
2017-09-05T13:57:56.331Z,100331.73
2017-09-05T14:00:25.368Z,100328.39
2017-09-05T14:02:54.473Z,100324.25
2017-09-05T14:05:26.316Z,100322.07
2017-09-05T14:07:57.435Z,100327.64
2017-09-05T14:10:26.499Z,100322.18
2017-09-05T14:12:55.544Z,100324.01
2017-09-05T14:15:24.797Z,100327.17
2017-09-05T14:17:53.857Z,100327.82
2017-09-05T14:20:22.911Z,100324.22
2017-09-05T14:22:52.018Z,100314.62
2017-09-05T14:25:21.816Z,100315.41
2017-09-05T14:27:50.891Z,100317.19
2017-09-05T14:30:19.951Z,100317.26
2017-09-05T14:32:49.013Z,100318.11
2017-09-05T14:35:18.145Z,100313.91
2017-09-05T14:37:47.229Z,100321.22
2017-09-05T14:40:16.330Z,100316.44
2017-09-05T14:42:45.760Z,100316.05
2017-09-05T14:45:14.821Z,100320.61
2017-09-05T14:47:43.866Z,100322.50
2017-09-05T14:50:12.977Z,100312.86
2017-09-05T14:52:42.040Z,100312.08
2017-09-05T14:55:11.100Z,100313.56
2017-09-05T14:57:40.220Z,100320.01
2017-09-05T15:00:09.423Z,100321.58
2017-09-05T15:02:38.486Z,100319.07
2017-09-05T15:05:07.590Z,100315.11
2017-09-05T15:07:36.627Z,100302.88
2017-09-05T15:10:05.720Z,100299.09
2017-09-05T15:12:34.784Z,100292.78
2017-09-05T15:15:03.895Z,100286.80
2017-09-05T15:17:32.993Z,100283.56
2017-09-05T15:20:02.054Z,100285.08
2017-09-05T15:22:31.144Z,100282.20
2017-09-05T15:25:00.225Z,100280.78
2017-09-05T15:27:29.301Z,100283.55
2017-09-05T15:29:58.387Z,100278.32
2017-09-05T15:32:28.256Z,100283.88
2017-09-05T15:34:57.325Z,100273.33
2017-09-05T15:37:26.394Z,100279.19
2017-09-05T15:39:55.469Z,100277.87
2017-09-05T15:42:24.524Z,100272.13
2017-09-05T15:44:53.601Z,100276.59
2017-09-05T15:47:22.668Z,100264.85
2017-09-05T15:49:52.726Z,100264.89
2017-09-05T15:52:21.868Z,100267.46
2017-09-05T15:54:50.924Z,100270.63
2017-09-05T15:57:20.027Z,100263.06
2017-09-05T15:59:49.085Z,100255.22
2017-09-05T16:02:18.166Z,100257.11
2017-09-05T16:04:47.228Z,100254.30
2017-09-05T16:07:16.328Z,100254.72
2017-09-05T16:09:45.399Z,100258.00
2017-09-05T16:12:14.660Z,100249.91
2017-09-05T16:14:43.726Z,100256.53
2017-09-05T16:17:12.818Z,100254.36
2017-09-05T16:19:43.387Z,100246.44
2017-09-05T16:22:13.489Z,100244.52
2017-09-05T16:24:42.556Z,100252.46
2017-09-05T16:27:11.623Z,100251.56
2017-09-05T16:29:40.675Z,100248.81
2017-09-05T16:32:09.771Z,100248.78
2017-09-05T16:34:38.821Z,100240.59
2017-09-05T16:37:07.915Z,100235.78
2017-09-05T16:39:36.940Z,100233.53
2017-09-05T16:42:06.282Z,100228.55
2017-09-05T16:44:35.846Z,100231.72
2017-09-05T16:47:05.884Z,100234.75
2017-09-05T16:49:35.087Z,100232.54
2017-09-05T16:52:04.265Z,100234.92
2017-09-05T16:54:33.338Z,100231.30
2017-09-05T16:57:02.401Z,100236.71
2017-09-05T16:59:31.576Z,100235.96
2017-09-05T17:02:02.120Z,100234.45
2017-09-05T17:04:31.229Z,100239.33
2017-09-05T17:07:00.340Z,100235.37
2017-09-05T17:09:29.532Z,100238.72
2017-09-05T17:11:58.594Z,100228.09
2017-09-05T17:14:27.648Z,100227.55
2017-09-05T17:16:56.769Z,100227.82
2017-09-05T17:19:27.537Z,100228.67
2017-09-05T17:21:56.630Z,100226.16
2017-09-05T17:24:25.718Z,100222.87
2017-09-05T17:26:55.054Z,100228.88
2017-09-05T17:29:24.136Z,100227.36
2017-09-05T17:31:53.207Z,100221.44
2017-09-05T17:34:22.261Z,100223.03
2017-09-05T17:36:51.354Z,100215.73
2017-09-05T17:39:20.391Z,100221.73
2017-09-05T17:41:49.459Z,100221.55
2017-09-05T17:44:18.519Z,100214.66
2017-09-05T17:46:47.950Z,100221.86
2017-09-05T17:49:16.960Z,100217.52
2017-09-05T17:51:46.024Z,100222.27
2017-09-05T17:54:15.112Z,100222.72
2017-09-05T17:56:44.329Z,100218.19
2017-09-05T17:59:13.409Z,100215.86
2017-09-05T18:01:42.477Z,100218.89
2017-09-05T18:04:12.442Z,100217.36
2017-09-05T18:06:41.498Z,100219.25
2017-09-05T18:09:10.619Z,100220.64
2017-09-05T18:11:39.649Z,100219.30
2017-09-05T18:14:08.755Z,100217.93
2017-09-05T18:16:37.858Z,100220.74
2017-09-05T18:19:07.045Z,100225.92
2017-09-05T18:21:36.148Z,100228.72
2017-09-05T18:24:05.291Z,100223.97
2017-09-05T18:26:35.484Z,100219.86
2017-09-05T18:29:04.683Z,100222.69
2017-09-05T18:31:33.774Z,100225.88
2017-09-05T18:34:02.866Z,100221.33
2017-09-05T18:36:31.911Z,100231.44
2017-09-05T18:39:01.761Z,100225.48
2017-09-05T18:41:30.980Z,100225.69
2017-09-05T18:44:00.120Z,100227.66
2017-09-05T18:46:29.989Z,100232.64
2017-09-05T18:48:59.072Z,100235.02
2017-09-05T18:51:28.256Z,100236.83
2017-09-05T18:53:57.621Z,100242.77
2017-09-05T18:56:28.261Z,100240.21
2017-09-05T18:58:57.804Z,100246.53
2017-09-05T19:01:26.937Z,100244.20
2017-09-05T19:03:56.054Z,100247.77
2017-09-05T19:06:25.110Z,100242.42
2017-09-05T19:08:54.552Z,100244.02
2017-09-05T19:11:23.736Z,100240.23
2017-09-05T19:13:52.869Z,100241.83
2017-09-05T19:16:21.947Z,100243.90
2017-09-05T19:18:51.007Z,100244.63
2017-09-05T19:21:20.098Z,100237.73
2017-09-05T19:23:49.197Z,100235.60
2017-09-05T19:26:18.244Z,100237.79
2017-09-05T19:28:47.374Z,100241.40
2017-09-05T19:31:16.434Z,100236.09
2017-09-05T19:33:45.491Z,100226.83
2017-09-05T19:36:14.591Z,100231.39
2017-09-05T19:38:43.684Z,100225.67
2017-09-05T19:41:12.796Z,100218.36
2017-09-05T19:43:41.887Z,100217.00
2017-09-05T19:46:10.947Z,100220.94
2017-09-05T19:48:40.069Z,100220.77
2017-09-05T19:51:09.209Z,100225.48
2017-09-05T19:53:38.294Z,100220.36
2017-09-05T19:56:08.151Z,100217.18
2017-09-05T19:58:38.187Z,100221.74
2017-09-05T20:01:07.289Z,100223.91
2017-09-05T20:03:36.361Z,100214.63
2017-09-05T20:06:05.987Z,100214.44
2017-09-05T20:08:35.061Z,100211.67
2017-09-05T20:11:04.116Z,100214.45
2017-09-05T20:13:33.160Z,100213.45
2017-09-05T20:16:02.276Z,100209.30
2017-09-05T20:18:31.330Z,100204.57
2017-09-05T20:21:00.385Z,100207.13
2017-09-05T20:23:30.388Z,100208.70
2017-09-05T20:25:59.580Z,100208.31
2017-09-05T20:28:28.628Z,100214.63
2017-09-05T20:30:57.687Z,100211.27
2017-09-05T20:33:26.813Z,100210.48
2017-09-05T20:35:55.864Z,100213.44
2017-09-05T20:38:24.930Z,100216.98
2017-09-05T20:40:53.987Z,100211.25
2017-09-05T20:43:23.058Z,100213.22
2017-09-05T20:45:53.070Z,100211.64
2017-09-05T20:48:22.100Z,100214.42
2017-09-05T20:50:51.160Z,100222.92
2017-09-05T20:53:20.973Z,100233.95
2017-09-05T20:55:50.063Z,100236.72
2017-09-05T20:58:19.128Z,100231.17
2017-09-05T21:00:48.190Z,100232.35
2017-09-05T21:03:17.253Z,100232.55
2017-09-05T21:05:47.061Z,100230.78
2017-09-05T21:08:16.269Z,100227.03
2017-09-05T21:10:46.096Z,100221.50
2017-09-05T21:13:16.658Z,100220.52
2017-09-05T21:15:45.757Z,100225.05
2017-09-05T21:18:15.304Z,100219.34
2017-09-05T21:20:45.124Z,100218.16
2017-09-05T21:23:14.209Z,100213.45
2017-09-05T21:25:43.340Z,100212.45
2017-09-05T21:28:12.399Z,100211.85
2017-09-05T21:30:41.459Z,100212.07
2017-09-05T21:33:10.548Z,100210.07
2017-09-05T21:35:39.606Z,100206.14
2017-09-05T21:38:09.458Z,100197.84
2017-09-05T21:40:38.500Z,100199.82
2017-09-05T21:43:07.616Z,100195.28
2017-09-05T21:45:37.416Z,100195.27
2017-09-05T21:48:06.641Z,100196.08
2017-09-05T21:50:35.702Z,100199.44
2017-09-05T21:53:05.536Z,100201.61
2017-09-05T21:55:34.871Z,100206.73
2017-09-05T21:58:03.922Z,100204.35
2017-09-05T22:00:33.001Z,100207.91
2017-09-05T22:03:02.415Z,100194.28
2017-09-05T22:05:31.445Z,100198.64
2017-09-05T22:08:00.489Z,100198.23
2017-09-05T22:10:29.529Z,100199.22
2017-09-05T22:12:58.649Z,100201.58
2017-09-05T22:15:33.178Z,100202.17
2017-09-05T22:18:02.269Z,100202.78
2017-09-05T22:20:36.964Z,100199.02
2017-09-05T22:23:06.043Z,100198.61
2017-09-05T22:25:40.676Z,100187.35
2017-09-05T22:28:15.373Z,100189.16
2017-09-05T22:30:44.421Z,100196.25
2017-09-05T22:33:13.486Z,100200.14
2017-09-05T22:35:43.309Z,100192.64
2017-09-05T22:38:12.384Z,100201.93
2017-09-05T22:40:41.411Z,100187.11
2017-09-05T22:43:10.503Z,100192.06
2017-09-05T22:45:39.579Z,100191.25
2017-09-05T22:48:09.400Z,100190.45
2017-09-05T22:50:38.436Z,100193.42
2017-09-05T22:53:07.729Z,100186.73
2017-09-05T22:55:36.763Z,100186.15
2017-09-05T22:58:05.825Z,100186.13
2017-09-05T23:00:34.888Z,100183.16
2017-09-05T23:03:03.960Z,100183.36
2017-09-05T23:05:33.789Z,100195.19
2017-09-05T23:08:03.956Z,100186.70
2017-09-05T23:10:33.263Z,100185.92
2017-09-05T23:13:02.355Z,100191.81
2017-09-05T23:15:31.424Z,100187.66
2017-09-05T23:18:00.526Z,100188.64
2017-09-05T23:20:29.580Z,100189.83
2017-09-05T23:22:58.635Z,100184.89
2017-09-05T23:25:27.714Z,100184.70
2017-09-05T23:27:57.520Z,100187.45
2017-09-05T23:30:26.580Z,100186.28
2017-09-05T23:32:56.406Z,100178.98
2017-09-05T23:35:25.482Z,100187.05
2017-09-05T23:37:55.412Z,100183.30
2017-09-05T23:40:24.456Z,100187.27
2017-09-05T23:42:53.530Z,100177.97
2017-09-05T23:45:22.585Z,100181.31
2017-09-05T23:47:52.425Z,100181.74
2017-09-05T23:50:21.488Z,100183.69
2017-09-05T23:52:50.524Z,100171.63
2017-09-05T23:55:19.624Z,100182.09
2017-09-05T23:57:48.687Z,100179.92
